sensor_id;sensor_type;location;lat;lon;timestamp;P1;durP1;ratioP1;P2;durP2;ratioP2
76761;SDS011;65705;51.032;13.790;2023-07-22T00:00:15;4.07;;;2.13;;
76761;SDS011;65705;51.032;13.790;2023-07-22T00:02:42;5.97;;;2.33;;
76761;SDS011;65705;51.032;13.790;2023-07-22T00:05:08;6.03;;;2.22;;
76761;SDS011;65705;51.032;13.790;2023-07-22T00:07:36;5.22;;;2.22;;
76761;SDS011;65705;51.032;13.790;2023-07-22T00:10:02;5.38;;;2.35;;
76761;SDS011;65705;51.032;13.790;2023-07-22T00:12:28;6.82;;;2.35;;
76761;SDS011;65705;51.032;13.790;2023-07-22T00:14:53;5.57;;;2.45;;
76761;SDS011;65705;51.032;13.790;2023-07-22T00:17:19;5.13;;;2.40;;
76761;SDS011;65705;51.032;13.790;2023-07-22T00:19:46;5.75;;;1.92;;
76761;SDS011;65705;51.032;13.790;2023-07-22T00:22:13;3.50;;;2.03;;
76761;SDS011;65705;51.032;13.790;2023-07-22T00:24:40;5.15;;;2.22;;
76761;SDS011;65705;51.032;13.790;2023-07-22T00:27:06;5.30;;;2.42;;
76761;SDS011;65705;51.032;13.790;2023-07-22T00:29:37;5.40;;;2.30;;
76761;SDS011;65705;51.032;13.790;2023-07-22T00:32:04;4.43;;;2.25;;
76761;SDS011;65705;51.032;13.790;2023-07-22T00:34:32;8.75;;;2.47;;
76761;SDS011;65705;51.032;13.790;2023-07-22T00:36:58;3.95;;;2.22;;
76761;SDS011;65705;51.032;13.790;2023-07-22T00:39:24;4.13;;;2.30;;
76761;SDS011;65705;51.032;13.790;2023-07-22T00:41:50;7.78;;;2.30;;
76761;SDS011;65705;51.032;13.790;2023-07-22T00:44:15;4.30;;;2.00;;
76761;SDS011;65705;51.032;13.790;2023-07-22T00:46:41;8.48;;;2.33;;
76761;SDS011;65705;51.032;13.790;2023-07-22T00:49:07;4.35;;;2.50;;
76761;SDS011;65705;51.032;13.790;2023-07-22T00:51:33;6.68;;;2.15;;
76761;SDS011;65705;51.032;13.790;2023-07-22T00:53:59;4.18;;;2.30;;
76761;SDS011;65705;51.032;13.790;2023-07-22T00:56:25;7.55;;;2.08;;
76761;SDS011;65705;51.032;13.790;2023-07-22T00:58:51;7.97;;;2.67;;
76761;SDS011;65705;51.032;13.790;2023-07-22T01:01:18;6.07;;;2.38;;
76761;SDS011;65705;51.032;13.790;2023-07-22T01:03:43;8.90;;;2.28;;
76761;SDS011;65705;51.032;13.790;2023-07-22T01:06:11;5.43;;;2.28;;
76761;SDS011;65705;51.032;13.790;2023-07-22T01:08:39;4.57;;;2.28;;
76761;SDS011;65705;51.032;13.790;2023-07-22T01:11:05;4.47;;;2.35;;
76761;SDS011;65705;51.032;13.790;2023-07-22T01:13:31;6.50;;;2.85;;
76761;SDS011;65705;51.032;13.790;2023-07-22T01:15:57;7.93;;;3.15;;
76761;SDS011;65705;51.032;13.790;2023-07-22T01:18:23;8.73;;;3.00;;
76761;SDS011;65705;51.032;13.790;2023-07-22T01:20:49;5.15;;;2.08;;
76761;SDS011;65705;51.032;13.790;2023-07-22T01:23:16;5.97;;;2.30;;
76761;SDS011;65705;51.032;13.790;2023-07-22T01:25:42;7.93;;;2.28;;
76761;SDS011;65705;51.032;13.790;2023-07-22T01:28:09;5.75;;;2.55;;
76761;SDS011;65705;51.032;13.790;2023-07-22T01:30:36;5.20;;;2.28;;
76761;SDS011;65705;51.032;13.790;2023-07-22T01:33:02;7.10;;;2.85;;
76761;SDS011;65705;51.032;13.790;2023-07-22T01:35:28;6.03;;;2.35;;
76761;SDS011;65705;51.032;13.790;2023-07-22T01:37:54;7.72;;;2.20;;
76761;SDS011;65705;51.032;13.790;2023-07-22T01:40:20;3.80;;;2.00;;
76761;SDS011;65705;51.032;13.790;2023-07-22T01:42:46;3.63;;;2.20;;
76761;SDS011;65705;51.032;13.790;2023-07-22T01:45:11;4.07;;;2.03;;
76761;SDS011;65705;51.032;13.790;2023-07-22T01:47:38;8.05;;;2.78;;
76761;SDS011;65705;51.032;13.790;2023-07-22T01:50:05;4.35;;;2.53;;
76761;SDS011;65705;51.032;13.790;2023-07-22T01:52:32;6.03;;;2.30;;
76761;SDS011;65705;51.032;13.790;2023-07-22T01:54:58;5.60;;;2.38;;
76761;SDS011;65705;51.032;13.790;2023-07-22T01:57:23;3.30;;;1.75;;
76761;SDS011;65705;51.032;13.790;2023-07-22T01:59:50;5.07;;;2.40;;
76761;SDS011;65705;51.032;13.790;2023-07-22T02:02:15;5.57;;;2.13;;
76761;SDS011;65705;51.032;13.790;2023-07-22T02:04:41;5.63;;;2.08;;
76761;SDS011;65705;51.032;13.790;2023-07-22T02:07:07;7.88;;;2.33;;
76761;SDS011;65705;51.032;13.790;2023-07-22T02:09:33;11.30;;;2.45;;
76761;SDS011;65705;51.032;13.790;2023-07-22T02:11:58;6.82;;;2.58;;
76761;SDS011;65705;51.032;13.790;2023-07-22T02:14:24;6.60;;;2.30;;
76761;SDS011;65705;51.032;13.790;2023-07-22T02:16:50;6.05;;;2.35;;
76761;SDS011;65705;51.032;13.790;2023-07-22T02:19:16;4.95;;;2.30;;
76761;SDS011;65705;51.032;13.790;2023-07-22T02:21:41;5.47;;;2.50;;
76761;SDS011;65705;51.032;13.790;2023-07-22T02:24:10;8.23;;;2.58;;
76761;SDS011;65705;51.032;13.790;2023-07-22T02:26:36;6.45;;;2.55;;
76761;SDS011;65705;51.032;13.790;2023-07-22T02:29:02;4.97;;;2.75;;
76761;SDS011;65705;51.032;13.790;2023-07-22T02:31:28;4.63;;;2.28;;
76761;SDS011;65705;51.032;13.790;2023-07-22T02:33:53;5.90;;;2.17;;
76761;SDS011;65705;51.032;13.790;2023-07-22T02:36:19;8.48;;;2.83;;
76761;SDS011;65705;51.032;13.790;2023-07-22T02:38:45;6.80;;;2.22;;
76761;SDS011;65705;51.032;13.790;2023-07-22T02:41:12;5.30;;;2.70;;
76761;SDS011;65705;51.032;13.790;2023-07-22T02:43:38;8.68;;;2.63;;
76761;SDS011;65705;51.032;13.790;2023-07-22T02:46:05;4.88;;;2.78;;
76761;SDS011;65705;51.032;13.790;2023-07-22T02:48:33;9.68;;;3.63;;
76761;SDS011;65705;51.032;13.790;2023-07-22T02:51:03;7.50;;;2.50;;
76761;SDS011;65705;51.032;13.790;2023-07-22T02:53:30;5.85;;;2.50;;
76761;SDS011;65705;51.032;13.790;2023-07-22T02:55:57;10.10;;;2.47;;
76761;SDS011;65705;51.032;13.790;2023-07-22T02:58:23;6.43;;;2.88;;
76761;SDS011;65705;51.032;13.790;2023-07-22T03:00:48;5.22;;;2.53;;
76761;SDS011;65705;51.032;13.790;2023-07-22T03:03:14;7.97;;;2.40;;
76761;SDS011;65705;51.032;13.790;2023-07-22T03:05:40;5.40;;;2.45;;
76761;SDS011;65705;51.032;13.790;2023-07-22T03:08:05;4.35;;;2.45;;
76761;SDS011;65705;51.032;13.790;2023-07-22T03:10:32;5.43;;;2.50;;
76761;SDS011;65705;51.032;13.790;2023-07-22T03:12:58;7.15;;;3.15;;
76761;SDS011;65705;51.032;13.790;2023-07-22T03:15:25;6.22;;;2.88;;
76761;SDS011;65705;51.032;13.790;2023-07-22T03:17:51;6.85;;;2.92;;
76761;SDS011;65705;51.032;13.790;2023-07-22T03:20:17;8.18;;;2.88;;
76761;SDS011;65705;51.032;13.790;2023-07-22T03:22:45;7.68;;;3.30;;
76761;SDS011;65705;51.032;13.790;2023-07-22T03:25:12;7.97;;;3.30;;
76761;SDS011;65705;51.032;13.790;2023-07-22T03:27:39;5.35;;;2.80;;
76761;SDS011;65705;51.032;13.790;2023-07-22T03:30:06;6.53;;;2.75;;
76761;SDS011;65705;51.032;13.790;2023-07-22T03:32:36;5.93;;;3.00;;
76761;SDS011;65705;51.032;13.790;2023-07-22T03:35:02;4.70;;;2.80;;
76761;SDS011;65705;51.032;13.790;2023-07-22T03:37:31;8.52;;;3.25;;
76761;SDS011;65705;51.032;13.790;2023-07-22T03:39:57;12.70;;;3.17;;
76761;SDS011;65705;51.032;13.790;2023-07-22T03:42:22;6.07;;;2.70;;
76761;SDS011;65705;51.032;13.790;2023-07-22T03:44:48;9.77;;;2.67;;
76761;SDS011;65705;51.032;13.790;2023-07-22T03:47:14;8.00;;;2.47;;
76761;SDS011;65705;51.032;13.790;2023-07-22T03:49:39;4.75;;;2.85;;
76761;SDS011;65705;51.032;13.790;2023-07-22T03:52:05;7.28;;;2.95;;
76761;SDS011;65705;51.032;13.790;2023-07-22T03:54:31;9.90;;;2.92;;
76761;SDS011;65705;51.032;13.790;2023-07-22T03:56:57;7.30;;;2.80;;
76761;SDS011;65705;51.032;13.790;2023-07-22T03:59:23;7.55;;;3.20;;
76761;SDS011;65705;51.032;13.790;2023-07-22T04:01:48;8.73;;;3.08;;
76761;SDS011;65705;51.032;13.790;2023-07-22T04:04:14;6.35;;;3.00;;
76761;SDS011;65705;51.032;13.790;2023-07-22T04:06:40;6.20;;;3.35;;
76761;SDS011;65705;51.032;13.790;2023-07-22T04:09:05;8.00;;;2.85;;
76761;SDS011;65705;51.032;13.790;2023-07-22T04:11:31;8.88;;;3.13;;
76761;SDS011;65705;51.032;13.790;2023-07-22T04:13:57;4.55;;;3.08;;
76761;SDS011;65705;51.032;13.790;2023-07-22T04:16:23;15.43;;;3.20;;
76761;SDS011;65705;51.032;13.790;2023-07-22T04:18:49;5.07;;;2.35;;
76761;SDS011;65705;51.032;13.790;2023-07-22T04:21:15;7.95;;;2.65;;
76761;SDS011;65705;51.032;13.790;2023-07-22T04:23:40;5.75;;;2.30;;
76761;SDS011;65705;51.032;13.790;2023-07-22T04:26:06;7.50;;;2.92;;
76761;SDS011;65705;51.032;13.790;2023-07-22T04:28:35;8.65;;;3.00;;
76761;SDS011;65705;51.032;13.790;2023-07-22T04:31:00;5.45;;;2.70;;
76761;SDS011;65705;51.032;13.790;2023-07-22T04:33:27;8.80;;;3.03;;
76761;SDS011;65705;51.032;13.790;2023-07-22T04:35:53;6.82;;;2.45;;
76761;SDS011;65705;51.032;13.790;2023-07-22T04:38:21;7.82;;;2.58;;
76761;SDS011;65705;51.032;13.790;2023-07-22T04:40:47;6.88;;;3.05;;
76761;SDS011;65705;51.032;13.790;2023-07-22T04:43:12;8.15;;;2.55;;
76761;SDS011;65705;51.032;13.790;2023-07-22T04:45:38;5.93;;;2.40;;
76761;SDS011;65705;51.032;13.790;2023-07-22T04:48:07;7.75;;;3.00;;
76761;SDS011;65705;51.032;13.790;2023-07-22T04:50:33;6.78;;;2.80;;
76761;SDS011;65705;51.032;13.790;2023-07-22T04:52:58;7.40;;;2.28;;
76761;SDS011;65705;51.032;13.790;2023-07-22T04:55:24;5.63;;;2.30;;
76761;SDS011;65705;51.032;13.790;2023-07-22T04:57:51;7.18;;;2.40;;
76761;SDS011;65705;51.032;13.790;2023-07-22T05:00:17;7.60;;;2.45;;
76761;SDS011;65705;51.032;13.790;2023-07-22T05:02:45;6.43;;;2.13;;
76761;SDS011;65705;51.032;13.790;2023-07-22T05:05:12;6.93;;;2.70;;
76761;SDS011;65705;51.032;13.790;2023-07-22T05:07:38;8.27;;;2.53;;
76761;SDS011;65705;51.032;13.790;2023-07-22T05:10:04;7.28;;;2.70;;
76761;SDS011;65705;51.032;13.790;2023-07-22T05:12:32;7.40;;;2.80;;
76761;SDS011;65705;51.032;13.790;2023-07-22T05:14:58;7.22;;;2.78;;
76761;SDS011;65705;51.032;13.790;2023-07-22T05:17:24;7.70;;;2.80;;
76761;SDS011;65705;51.032;13.790;2023-07-22T05:19:50;5.68;;;2.67;;
76761;SDS011;65705;51.032;13.790;2023-07-22T05:22:16;7.00;;;2.45;;
76761;SDS011;65705;51.032;13.790;2023-07-22T05:24:42;5.40;;;2.70;;
76761;SDS011;65705;51.032;13.790;2023-07-22T05:27:08;4.70;;;2.75;;
76761;SDS011;65705;51.032;13.790;2023-07-22T05:29:33;10.82;;;2.30;;
76761;SDS011;65705;51.032;13.790;2023-07-22T05:31:59;7.72;;;3.03;;
76761;SDS011;65705;51.032;13.790;2023-07-22T05:34:25;8.82;;;3.17;;
76761;SDS011;65705;51.032;13.790;2023-07-22T05:36:51;7.97;;;3.08;;
76761;SDS011;65705;51.032;13.790;2023-07-22T05:39:16;7.32;;;2.97;;
76761;SDS011;65705;51.032;13.790;2023-07-22T05:41:43;6.47;;;3.00;;
76761;SDS011;65705;51.032;13.790;2023-07-22T05:44:09;6.10;;;3.10;;
76761;SDS011;65705;51.032;13.790;2023-07-22T05:46:35;6.53;;;3.92;;
76761;SDS011;65705;51.032;13.790;2023-07-22T05:49:01;5.93;;;2.85;;
76761;SDS011;65705;51.032;13.790;2023-07-22T05:51:27;8.90;;;2.97;;
76761;SDS011;65705;51.032;13.790;2023-07-22T05:53:54;5.65;;;2.40;;
76761;SDS011;65705;51.032;13.790;2023-07-22T05:56:20;5.35;;;2.72;;
76761;SDS011;65705;51.032;13.790;2023-07-22T05:58:46;10.70;;;2.97;;
76761;SDS011;65705;51.032;13.790;2023-07-22T06:01:11;8.23;;;2.53;;
76761;SDS011;65705;51.032;13.790;2023-07-22T06:03:38;5.50;;;3.17;;
76761;SDS011;65705;51.032;13.790;2023-07-22T06:06:03;8.00;;;3.08;;
76761;SDS011;65705;51.032;13.790;2023-07-22T06:08:29;5.97;;;3.22;;
76761;SDS011;65705;51.032;13.790;2023-07-22T06:10:56;8.15;;;3.38;;
76761;SDS011;65705;51.032;13.790;2023-07-22T06:13:25;10.07;;;3.63;;
76761;SDS011;65705;51.032;13.790;2023-07-22T06:15:52;8.75;;;3.10;;
76761;SDS011;65705;51.032;13.790;2023-07-22T06:18:18;9.32;;;3.33;;
76761;SDS011;65705;51.032;13.790;2023-07-22T06:20:44;7.60;;;3.40;;
76761;SDS011;65705;51.032;13.790;2023-07-22T06:23:11;7.03;;;3.38;;
76761;SDS011;65705;51.032;13.790;2023-07-22T06:25:36;12.27;;;3.97;;
76761;SDS011;65705;51.032;13.790;2023-07-22T06:28:02;6.82;;;3.60;;
76761;SDS011;65705;51.032;13.790;2023-07-22T06:30:28;6.22;;;3.47;;
76761;SDS011;65705;51.032;13.790;2023-07-22T06:32:54;7.20;;;3.40;;
76761;SDS011;65705;51.032;13.790;2023-07-22T06:35:20;9.30;;;3.60;;
76761;SDS011;65705;51.032;13.790;2023-07-22T06:37:45;8.73;;;3.55;;
76761;SDS011;65705;51.032;13.790;2023-07-22T06:40:11;8.98;;;3.78;;
76761;SDS011;65705;51.032;13.790;2023-07-22T06:42:37;7.47;;;3.75;;
76761;SDS011;65705;51.032;13.790;2023-07-22T06:45:04;7.43;;;3.60;;
76761;SDS011;65705;51.032;13.790;2023-07-22T06:47:30;8.68;;;3.30;;
76761;SDS011;65705;51.032;13.790;2023-07-22T06:49:57;9.27;;;3.55;;
76761;SDS011;65705;51.032;13.790;2023-07-22T06:52:23;6.95;;;3.53;;
76761;SDS011;65705;51.032;13.790;2023-07-22T06:54:49;9.88;;;3.75;;
76761;SDS011;65705;51.032;13.790;2023-07-22T06:57:15;10.05;;;3.60;;
76761;SDS011;65705;51.032;13.790;2023-07-22T06:59:40;6.07;;;3.28;;
76761;SDS011;65705;51.032;13.790;2023-07-22T07:02:06;8.32;;;3.13;;
76761;SDS011;65705;51.032;13.790;2023-07-22T07:04:32;7.57;;;2.97;;
76761;SDS011;65705;51.032;13.790;2023-07-22T07:06:58;8.77;;;5.25;;
76761;SDS011;65705;51.032;13.790;2023-07-22T07:09:24;7.65;;;3.75;;
76761;SDS011;65705;51.032;13.790;2023-07-22T07:11:50;7.65;;;3.25;;
76761;SDS011;65705;51.032;13.790;2023-07-22T07:14:17;10.77;;;3.78;;
76761;SDS011;65705;51.032;13.790;2023-07-22T07:16:43;7.63;;;2.95;;
76761;SDS011;65705;51.032;13.790;2023-07-22T07:19:09;7.93;;;3.50;;
76761;SDS011;65705;51.032;13.790;2023-07-22T07:21:35;7.30;;;3.50;;
76761;SDS011;65705;51.032;13.790;2023-07-22T07:24:01;6.47;;;3.65;;
76761;SDS011;65705;51.032;13.790;2023-07-22T07:26:27;6.55;;;3.80;;
76761;SDS011;65705;51.032;13.790;2023-07-22T07:28:53;6.93;;;3.40;;
76761;SDS011;65705;51.032;13.790;2023-07-22T07:31:19;8.70;;;3.78;;
76761;SDS011;65705;51.032;13.790;2023-07-22T07:33:45;8.43;;;4.00;;
76761;SDS011;65705;51.032;13.790;2023-07-22T07:36:11;7.30;;;3.35;;
76761;SDS011;65705;51.032;13.790;2023-07-22T07:38:36;8.18;;;4.03;;
76761;SDS011;65705;51.032;13.790;2023-07-22T07:41:04;10.43;;;3.50;;
76761;SDS011;65705;51.032;13.790;2023-07-22T07:43:36;9.73;;;3.90;;
76761;SDS011;65705;51.032;13.790;2023-07-22T07:46:13;9.02;;;4.30;;
76761;SDS011;65705;51.032;13.790;2023-07-22T07:48:38;8.18;;;4.03;;
76761;SDS011;65705;51.032;13.790;2023-07-22T07:51:04;8.85;;;3.92;;
76761;SDS011;65705;51.032;13.790;2023-07-22T07:53:30;6.47;;;3.72;;
76761;SDS011;65705;51.032;13.790;2023-07-22T07:55:55;6.43;;;3.88;;
76761;SDS011;65705;51.032;13.790;2023-07-22T07:58:21;5.43;;;3.33;;
76761;SDS011;65705;51.032;13.790;2023-07-22T08:00:47;5.45;;;2.70;;
76761;SDS011;65705;51.032;13.790;2023-07-22T08:03:12;8.43;;;3.65;;
76761;SDS011;65705;51.032;13.790;2023-07-22T08:05:39;7.90;;;3.45;;
76761;SDS011;65705;51.032;13.790;2023-07-22T08:08:05;6.80;;;3.05;;
76761;SDS011;65705;51.032;13.790;2023-07-22T08:10:30;6.55;;;3.40;;
76761;SDS011;65705;51.032;13.790;2023-07-22T08:12:56;6.18;;;3.33;;
76761;SDS011;65705;51.032;13.790;2023-07-22T08:15:22;8.45;;;3.38;;
76761;SDS011;65705;51.032;13.790;2023-07-22T08:17:47;7.70;;;3.45;;
76761;SDS011;65705;51.032;13.790;2023-07-22T08:20:13;6.00;;;2.92;;
76761;SDS011;65705;51.032;13.790;2023-07-22T08:22:39;7.55;;;3.55;;
76761;SDS011;65705;51.032;13.790;2023-07-22T08:25:04;7.38;;;3.65;;
76761;SDS011;65705;51.032;13.790;2023-07-22T08:27:30;11.45;;;3.70;;
76761;SDS011;65705;51.032;13.790;2023-07-22T08:29:56;5.95;;;3.15;;
76761;SDS011;65705;51.032;13.790;2023-07-22T08:32:22;10.80;;;3.88;;
76761;SDS011;65705;51.032;13.790;2023-07-22T08:34:47;7.20;;;3.42;;
76761;SDS011;65705;51.032;13.790;2023-07-22T08:37:13;7.75;;;3.35;;
76761;SDS011;65705;51.032;13.790;2023-07-22T08:39:39;4.53;;;2.60;;
76761;SDS011;65705;51.032;13.790;2023-07-22T08:42:04;9.68;;;3.85;;
76761;SDS011;65705;51.032;13.790;2023-07-22T08:44:32;6.88;;;3.50;;
76761;SDS011;65705;51.032;13.790;2023-07-22T08:47:02;7.32;;;3.38;;
76761;SDS011;65705;51.032;13.790;2023-07-22T08:49:31;7.38;;;3.00;;
76761;SDS011;65705;51.032;13.790;2023-07-22T08:51:58;5.60;;;3.63;;
76761;SDS011;65705;51.032;13.790;2023-07-22T08:54:25;6.40;;;3.53;;
76761;SDS011;65705;51.032;13.790;2023-07-22T08:56:53;8.50;;;3.65;;
76761;SDS011;65705;51.032;13.790;2023-07-22T08:59:19;5.82;;;3.10;;
76761;SDS011;65705;51.032;13.790;2023-07-22T09:01:46;7.70;;;3.13;;
76761;SDS011;65705;51.032;13.790;2023-07-22T09:04:14;6.93;;;3.42;;
76761;SDS011;65705;51.032;13.790;2023-07-22T09:06:40;8.30;;;3.95;;
76761;SDS011;65705;51.032;13.790;2023-07-22T09:09:07;9.38;;;3.53;;
76761;SDS011;65705;51.032;13.790;2023-07-22T09:11:34;6.60;;;3.05;;
76761;SDS011;65705;51.032;13.790;2023-07-22T09:14:02;4.82;;;2.60;;
76761;SDS011;65705;51.032;13.790;2023-07-22T09:16:29;7.15;;;2.67;;
76761;SDS011;65705;51.032;13.790;2023-07-22T09:18:57;4.22;;;2.22;;
76761;SDS011;65705;51.032;13.790;2023-07-22T09:21:23;4.72;;;2.42;;
76761;SDS011;65705;51.032;13.790;2023-07-22T09:23:48;4.80;;;2.60;;
76761;SDS011;65705;51.032;13.790;2023-07-22T09:26:15;5.72;;;2.72;;
76761;SDS011;65705;51.032;13.790;2023-07-22T09:28:55;8.23;;;3.20;;
76761;SDS011;65705;51.032;13.790;2023-07-22T09:31:23;7.03;;;3.33;;
76761;SDS011;65705;51.032;13.790;2023-07-22T09:33:50;5.78;;;2.83;;
76761;SDS011;65705;51.032;13.790;2023-07-22T09:36:16;5.97;;;2.75;;
76761;SDS011;65705;51.032;13.790;2023-07-22T09:38:42;5.97;;;2.50;;
76761;SDS011;65705;51.032;13.790;2023-07-22T09:41:08;7.32;;;2.63;;
76761;SDS011;65705;51.032;13.790;2023-07-22T09:43:39;6.18;;;2.13;;
76761;SDS011;65705;51.032;13.790;2023-07-22T09:46:08;6.93;;;2.78;;
76761;SDS011;65705;51.032;13.790;2023-07-22T09:48:44;6.50;;;2.65;;
76761;SDS011;65705;51.032;13.790;2023-07-22T09:51:14;5.80;;;2.42;;
76761;SDS011;65705;51.032;13.790;2023-07-22T09:53:51;4.22;;;2.47;;
76761;SDS011;65705;51.032;13.790;2023-07-22T09:56:25;5.68;;;2.30;;
76761;SDS011;65705;51.032;13.790;2023-07-22T09:58:51;5.15;;;2.33;;
76761;SDS011;65705;51.032;13.790;2023-07-22T10:01:24;6.07;;;2.40;;
76761;SDS011;65705;51.032;13.790;2023-07-22T10:03:52;4.47;;;2.15;;
76761;SDS011;65705;51.032;13.790;2023-07-22T10:08:50;5.47;;;2.17;;
76761;SDS011;65705;51.032;13.790;2023-07-22T10:11:17;5.90;;;2.25;;
76761;SDS011;65705;51.032;13.790;2023-07-22T10:13:44;6.38;;;3.50;;
76761;SDS011;65705;51.032;13.790;2023-07-22T10:16:10;5.68;;;2.90;;
76761;SDS011;65705;51.032;13.790;2023-07-22T10:18:37;4.32;;;1.90;;
76761;SDS011;65705;51.032;13.790;2023-07-22T10:23:32;5.43;;;1.75;;
76761;SDS011;65705;51.032;13.790;2023-07-22T10:25:59;4.20;;;2.28;;
76761;SDS011;65705;51.032;13.790;2023-07-22T10:28:25;3.35;;;2.00;;
76761;SDS011;65705;51.032;13.790;2023-07-22T10:30:52;4.85;;;2.28;;
76761;SDS011;65705;51.032;13.790;2023-07-22T10:33:18;4.07;;;2.00;;
76761;SDS011;65705;51.032;13.790;2023-07-22T10:35:47;4.70;;;1.92;;
76761;SDS011;65705;51.032;13.790;2023-07-22T10:38:28;4.80;;;2.40;;
76761;SDS011;65705;51.032;13.790;2023-07-22T10:40:54;3.13;;;1.90;;
76761;SDS011;65705;51.032;13.790;2023-07-22T10:43:24;5.47;;;2.00;;
76761;SDS011;65705;51.032;13.790;2023-07-22T10:45:51;5.28;;;1.90;;
76761;SDS011;65705;51.032;13.790;2023-07-22T10:48:22;3.88;;;1.95;;
76761;SDS011;65705;51.032;13.790;2023-07-22T10:50:52;4.68;;;1.92;;
76761;SDS011;65705;51.032;13.790;2023-07-22T10:53:40;3.47;;;2.22;;
76761;SDS011;65705;51.032;13.790;2023-07-22T10:58:56;4.57;;;2.40;;
76761;SDS011;65705;51.032;13.790;2023-07-22T11:01:24;4.72;;;2.42;;
76761;SDS011;65705;51.032;13.790;2023-07-22T11:04:08;4.60;;;2.83;;
76761;SDS011;65705;51.032;13.790;2023-07-22T11:06:36;5.20;;;2.53;;
76761;SDS011;65705;51.032;13.790;2023-07-22T11:09:05;4.75;;;2.42;;
76761;SDS011;65705;51.032;13.790;2023-07-22T11:11:38;7.18;;;2.40;;
76761;SDS011;65705;51.032;13.790;2023-07-22T11:14:17;4.57;;;2.20;;
76761;SDS011;65705;51.032;13.790;2023-07-22T11:16:46;5.63;;;2.17;;
76761;SDS011;65705;51.032;13.790;2023-07-22T11:19:13;4.55;;;2.13;;
76761;SDS011;65705;51.032;13.790;2023-07-22T11:21:40;6.13;;;2.38;;
76761;SDS011;65705;51.032;13.790;2023-07-22T11:24:06;6.05;;;2.10;;
76761;SDS011;65705;51.032;13.790;2023-07-22T11:26:33;3.67;;;2.35;;
76761;SDS011;65705;51.032;13.790;2023-07-22T11:29:00;4.55;;;2.10;;
76761;SDS011;65705;51.032;13.790;2023-07-22T11:31:30;5.22;;;2.45;;
76761;SDS011;65705;51.032;13.790;2023-07-22T11:34:05;6.03;;;2.40;;
76761;SDS011;65705;51.032;13.790;2023-07-22T11:36:31;6.38;;;2.25;;
76761;SDS011;65705;51.032;13.790;2023-07-22T11:39:03;4.20;;;2.25;;
76761;SDS011;65705;51.032;13.790;2023-07-22T11:41:31;3.00;;;1.92;;
76761;SDS011;65705;51.032;13.790;2023-07-22T11:43:57;6.35;;;2.25;;
76761;SDS011;65705;51.032;13.790;2023-07-22T11:46:24;5.05;;;2.22;;
76761;SDS011;65705;51.032;13.790;2023-07-22T11:48:51;10.40;;;2.63;;
76761;SDS011;65705;51.032;13.790;2023-07-22T11:51:21;5.13;;;2.83;;
76761;SDS011;65705;51.032;13.790;2023-07-22T11:53:51;5.65;;;2.97;;
76761;SDS011;65705;51.032;13.790;2023-07-22T11:56:18;4.25;;;2.67;;
76761;SDS011;65705;51.032;13.790;2023-07-22T11:58:53;4.45;;;1.92;;
76761;SDS011;65705;51.032;13.790;2023-07-22T12:01:22;3.95;;;2.40;;
76761;SDS011;65705;51.032;13.790;2023-07-22T12:03:49;6.78;;;2.28;;
76761;SDS011;65705;51.032;13.790;2023-07-22T12:06:20;3.40;;;2.05;;
76761;SDS011;65705;51.032;13.790;2023-07-22T12:08:51;4.38;;;2.22;;
76761;SDS011;65705;51.032;13.790;2023-07-22T12:11:20;4.07;;;2.20;;
76761;SDS011;65705;51.032;13.790;2023-07-22T12:14:07;5.80;;;2.28;;
76761;SDS011;65705;51.032;13.790;2023-07-22T12:16:35;3.28;;;2.03;;
76761;SDS011;65705;51.032;13.790;2023-07-22T12:19:04;5.20;;;2.08;;
76761;SDS011;65705;51.032;13.790;2023-07-22T12:21:31;3.15;;;2.10;;
76761;SDS011;65705;51.032;13.790;2023-07-22T12:23:57;4.00;;;1.90;;
76761;SDS011;65705;51.032;13.790;2023-07-22T12:26:23;5.25;;;2.33;;
76761;SDS011;65705;51.032;13.790;2023-07-22T12:28:49;4.07;;;2.22;;
76761;SDS011;65705;51.032;13.790;2023-07-22T12:31:15;5.22;;;2.67;;
76761;SDS011;65705;51.032;13.790;2023-07-22T12:33:41;8.32;;;5.00;;
76761;SDS011;65705;51.032;13.790;2023-07-22T12:36:07;4.70;;;2.22;;
76761;SDS011;65705;51.032;13.790;2023-07-22T12:38:33;10.30;;;2.40;;
76761;SDS011;65705;51.032;13.790;2023-07-22T12:41:02;4.07;;;2.10;;
76761;SDS011;65705;51.032;13.790;2023-07-22T12:43:28;4.55;;;2.30;;
76761;SDS011;65705;51.032;13.790;2023-07-22T12:45:54;2.67;;;2.00;;
76761;SDS011;65705;51.032;13.790;2023-07-22T12:48:20;3.90;;;1.85;;
76761;SDS011;65705;51.032;13.790;2023-07-22T12:50:46;7.97;;;3.03;;
76761;SDS011;65705;51.032;13.790;2023-07-22T12:53:15;3.33;;;1.80;;
76761;SDS011;65705;51.032;13.790;2023-07-22T12:55:40;4.20;;;2.33;;
76761;SDS011;65705;51.032;13.790;2023-07-22T12:58:06;3.97;;;2.20;;
76761;SDS011;65705;51.032;13.790;2023-07-22T13:00:32;4.18;;;1.88;;
76761;SDS011;65705;51.032;13.790;2023-07-22T13:02:57;6.05;;;1.80;;
76761;SDS011;65705;51.032;13.790;2023-07-22T13:05:23;3.72;;;2.10;;
76761;SDS011;65705;51.032;13.790;2023-07-22T13:07:49;3.35;;;2.00;;
76761;SDS011;65705;51.032;13.790;2023-07-22T13:10:16;4.20;;;1.90;;
76761;SDS011;65705;51.032;13.790;2023-07-22T13:12:45;3.30;;;1.70;;
76761;SDS011;65705;51.032;13.790;2023-07-22T13:15:11;3.15;;;1.85;;
76761;SDS011;65705;51.032;13.790;2023-07-22T13:17:37;4.65;;;2.10;;
76761;SDS011;65705;51.032;13.790;2023-07-22T13:20:04;3.47;;;2.00;;
76761;SDS011;65705;51.032;13.790;2023-07-22T13:22:40;4.50;;;2.33;;
76761;SDS011;65705;51.032;13.790;2023-07-22T13:25:06;2.53;;;1.60;;
76761;SDS011;65705;51.032;13.790;2023-07-22T13:27:34;3.88;;;2.00;;
76761;SDS011;65705;51.032;13.790;2023-07-22T13:30:00;3.60;;;2.10;;
76761;SDS011;65705;51.032;13.790;2023-07-22T13:32:26;4.20;;;2.15;;
76761;SDS011;65705;51.032;13.790;2023-07-22T13:34:52;3.95;;;2.13;;
76761;SDS011;65705;51.032;13.790;2023-07-22T13:37:18;4.15;;;2.40;;
76761;SDS011;65705;51.032;13.790;2023-07-22T13:39:43;4.10;;;1.83;;
76761;SDS011;65705;51.032;13.790;2023-07-22T13:42:10;3.70;;;2.42;;
76761;SDS011;65705;51.032;13.790;2023-07-22T13:44:36;3.60;;;2.17;;
76761;SDS011;65705;51.032;13.790;2023-07-22T13:47:02;6.85;;;2.60;;
76761;SDS011;65705;51.032;13.790;2023-07-22T13:49:28;3.55;;;2.00;;
76761;SDS011;65705;51.032;13.790;2023-07-22T13:51:54;5.00;;;2.00;;
76761;SDS011;65705;51.032;13.790;2023-07-22T13:54:19;4.03;;;2.10;;
76761;SDS011;65705;51.032;13.790;2023-07-22T13:56:45;4.35;;;2.17;;
76761;SDS011;65705;51.032;13.790;2023-07-22T13:59:13;3.75;;;2.03;;
76761;SDS011;65705;51.032;13.790;2023-07-22T14:01:39;7.32;;;2.80;;
76761;SDS011;65705;51.032;13.790;2023-07-22T14:04:05;5.15;;;2.88;;
76761;SDS011;65705;51.032;13.790;2023-07-22T14:06:30;4.47;;;1.90;;
76761;SDS011;65705;51.032;13.790;2023-07-22T14:08:57;3.30;;;2.00;;
76761;SDS011;65705;51.032;13.790;2023-07-22T14:11:24;2.97;;;1.67;;
76761;SDS011;65705;51.032;13.790;2023-07-22T14:13:50;3.75;;;2.17;;
76761;SDS011;65705;51.032;13.790;2023-07-22T14:16:17;4.18;;;2.20;;
76761;SDS011;65705;51.032;13.790;2023-07-22T14:18:43;4.85;;;2.40;;
76761;SDS011;65705;51.032;13.790;2023-07-22T14:21:09;3.47;;;2.15;;
76761;SDS011;65705;51.032;13.790;2023-07-22T14:23:39;3.50;;;2.03;;
76761;SDS011;65705;51.032;13.790;2023-07-22T14:26:04;5.50;;;2.75;;
76761;SDS011;65705;51.032;13.790;2023-07-22T14:28:30;6.30;;;2.88;;
76761;SDS011;65705;51.032;13.790;2023-07-22T14:30:56;4.32;;;2.67;;
76761;SDS011;65705;51.032;13.790;2023-07-22T14:33:21;3.67;;;2.20;;
76761;SDS011;65705;51.032;13.790;2023-07-22T14:35:47;3.47;;;1.90;;
76761;SDS011;65705;51.032;13.790;2023-07-22T14:38:13;3.58;;;2.25;;